sensor_id;sensor_type;location;lat;lon;timestamp;temperature;humidity
2565;DHT22;1292;48.020;7.822;2023-06-22T05:47:05;22.30;99.90
2565;DHT22;1292;48.020;7.822;2023-06-22T05:49:32;22.20;99.90
2565;DHT22;1292;48.020;7.822;2023-06-22T05:51:59;22.30;99.90
2565;DHT22;1292;48.020;7.822;2023-06-22T05:54:27;22.40;99.90
2565;DHT22;1292;48.020;7.822;2023-06-22T05:56:54;22.50;99.90
2565;DHT22;1292;48.020;7.822;2023-06-22T05:59:21;22.50;99.90
2565;DHT22;1292;48.020;7.822;2023-06-22T06:01:47;22.50;99.90
2565;DHT22;1292;48.020;7.822;2023-06-22T06:04:17;22.50;99.90
2565;DHT22;1292;48.020;7.822;2023-06-22T06:06:44;22.50;99.90
2565;DHT22;1292;48.020;7.822;2023-06-22T06:09:12;22.50;99.90
2565;DHT22;1292;48.020;7.822;2023-06-22T06:11:39;22.50;99.90
2565;DHT22;1292;48.020;7.822;2023-06-22T06:14:06;22.40;99.90
2565;DHT22;1292;48.020;7.822;2023-06-22T06:16:33;22.40;99.90
2565;DHT22;1292;48.020;7.822;2023-06-22T06:19:00;22.30;99.90
2565;DHT22;1292;48.020;7.822;2023-06-22T06:21:28;22.40;99.90
2565;DHT22;1292;48.020;7.822;2023-06-22T06:23:55;22.40;99.90
2565;DHT22;1292;48.020;7.822;2023-06-22T06:26:21;22.40;99.90
2565;DHT22;1292;48.020;7.822;2023-06-22T06:28:53;22.60;99.90
2565;DHT22;1292;48.020;7.822;2023-06-22T06:31:21;22.50;99.90
2565;DHT22;1292;48.020;7.822;2023-06-22T06:33:48;22.70;99.90
2565;DHT22;1292;48.020;7.822;2023-06-22T06:36:15;22.70;99.90
2565;DHT22;1292;48.020;7.822;2023-06-22T06:38:43;22.90;99.90
2565;DHT22;1292;48.020;7.822;2023-06-22T06:41:12;23.00;99.90
2565;DHT22;1292;48.020;7.822;2023-06-22T06:43:39;23.10;99.90
2565;DHT22;1292;48.020;7.822;2023-06-22T06:46:06;23.10;99.90
2565;DHT22;1292;48.020;7.822;2023-06-22T06:48:33;23.20;99.90
2565;DHT22;1292;48.020;7.822;2023-06-22T06:51:00;23.20;99.90
2565;DHT22;1292;48.020;7.822;2023-06-22T06:53:27;23.30;99.90
2565;DHT22;1292;48.020;7.822;2023-06-22T06:55:55;23.40;99.90
2565;DHT22;1292;48.020;7.822;2023-06-22T06:58:22;23.30;99.90
2565;DHT22;1292;48.020;7.822;2023-06-22T07:00:49;23.20;99.90
2565;DHT22;1292;48.020;7.822;2023-06-22T07:03:16;23.10;99.90
2565;DHT22;1292;48.020;7.822;2023-06-22T07:05:42;23.10;99.90
2565;DHT22;1292;48.020;7.822;2023-06-22T07:08:09;23.20;99.90
2565;DHT22;1292;48.020;7.822;2023-06-22T07:10:36;23.30;99.90
2565;DHT22;1292;48.020;7.822;2023-06-22T07:13:04;23.30;99.90
2565;DHT22;1292;48.020;7.822;2023-06-22T07:15:31;23.40;99.90
2565;DHT22;1292;48.020;7.822;2023-06-22T07:17:58;23.40;99.90
2565;DHT22;1292;48.020;7.822;2023-06-22T07:20:25;23.40;99.90
2565;DHT22;1292;48.020;7.822;2023-06-22T07:22:52;23.50;99.90
2565;DHT22;1292;48.020;7.822;2023-06-22T07:25:19;23.60;99.90
2565;DHT22;1292;48.020;7.822;2023-06-22T07:27:46;23.70;99.90
2565;DHT22;1292;48.020;7.822;2023-06-22T07:30:24;23.80;99.90
2565;DHT22;1292;48.020;7.822;2023-06-22T07:32:52;23.80;99.90
2565;DHT22;1292;48.020;7.822;2023-06-22T07:35:19;23.80;99.90
2565;DHT22;1292;48.020;7.822;2023-06-22T07:37:46;23.80;99.90
2565;DHT22;1292;48.020;7.822;2023-06-22T07:40:13;23.80;99.90
2565;DHT22;1292;48.020;7.822;2023-06-22T07:42:40;23.80;99.90
2565;DHT22;1292;48.020;7.822;2023-06-22T07:45:07;23.80;99.90
2565;DHT22;1292;48.020;7.822;2023-06-22T07:47:36;23.80;99.90
2565;DHT22;1292;48.020;7.822;2023-06-22T07:50:03;23.80;99.90
2565;DHT22;1292;48.020;7.822;2023-06-22T07:52:31;23.70;99.90
2565;DHT22;1292;48.020;7.822;2023-06-22T07:54:58;23.60;99.90
2565;DHT22;1292;48.020;7.822;2023-06-22T07:57:25;23.70;99.90
2565;DHT22;1292;48.020;7.822;2023-06-22T07:59:57;23.80;99.90
2565;DHT22;1292;48.020;7.822;2023-06-22T08:02:25;24.00;99.90
2565;DHT22;1292;48.020;7.822;2023-06-22T08:04:53;24.10;99.90
2565;DHT22;1292;48.020;7.822;2023-06-22T08:07:20;24.20;99.90
2565;DHT22;1292;48.020;7.822;2023-06-22T08:09:47;24.30;99.90
2565;DHT22;1292;48.020;7.822;2023-06-22T08:12:15;24.40;99.90
2565;DHT22;1292;48.020;7.822;2023-06-22T08:14:42;24.50;99.90
2565;DHT22;1292;48.020;7.822;2023-06-22T08:17:10;24.70;99.90
2565;DHT22;1292;48.020;7.822;2023-06-22T08:19:37;24.90;99.90
2565;DHT22;1292;48.020;7.822;2023-06-22T08:22:06;25.00;99.90
2565;DHT22;1292;48.020;7.822;2023-06-22T08:24:32;25.20;99.90
2565;DHT22;1292;48.020;7.822;2023-06-22T08:26:59;25.20;99.90
2565;DHT22;1292;48.020;7.822;2023-06-22T08:29:26;25.30;99.90
2565;DHT22;1292;48.020;7.822;2023-06-22T08:31:53;25.50;99.90
2565;DHT22;1292;48.020;7.822;2023-06-22T08:34:20;25.50;99.90
2565;DHT22;1292;48.020;7.822;2023-06-22T08:36:47;25.60;99.90
2565;DHT22;1292;48.020;7.822;2023-06-22T08:39:19;25.80;99.90
2565;DHT22;1292;48.020;7.822;2023-06-22T08:41:47;26.00;99.90
2565;DHT22;1292;48.020;7.822;2023-06-22T08:44:16;26.10;99.90
2565;DHT22;1292;48.020;7.822;2023-06-22T08:46:43;26.30;99.90
2565;DHT22;1292;48.020;7.822;2023-06-22T08:49:10;26.40;99.90
2565;DHT22;1292;48.020;7.822;2023-06-22T08:51:36;26.50;99.90
2565;DHT22;1292;48.020;7.822;2023-06-22T08:54:03;26.60;99.90
2565;DHT22;1292;48.020;7.822;2023-06-22T08:56:31;26.80;99.90
2565;DHT22;1292;48.020;7.822;2023-06-22T08:58:58;26.90;99.90
2565;DHT22;1292;48.020;7.822;2023-06-22T09:01:25;27.00;99.90
2565;DHT22;1292;48.020;7.822;2023-06-22T09:03:52;27.10;99.90
2565;DHT22;1292;48.020;7.822;2023-06-22T09:06:23;27.10;99.90
2565;DHT22;1292;48.020;7.822;2023-06-22T09:08:50;27.10;99.90
2565;DHT22;1292;48.020;7.822;2023-06-22T09:11:17;27.10;99.90
2565;DHT22;1292;48.020;7.822;2023-06-22T09:13:45;27.00;99.90
2565;DHT22;1292;48.020;7.822;2023-06-22T09:16:12;27.10;99.90
2565;DHT22;1292;48.020;7.822;2023-06-22T09:18:39;27.20;99.90
2565;DHT22;1292;48.020;7.822;2023-06-22T09:21:06;27.40;99.90
2565;DHT22;1292;48.020;7.822;2023-06-22T09:23:33;27.50;99.90
2565;DHT22;1292;48.020;7.822;2023-06-22T09:26:00;27.50;99.90
2565;DHT22;1292;48.020;7.822;2023-06-22T09:28:27;27.70;99.90
2565;DHT22;1292;48.020;7.822;2023-06-22T09:30:55;28.00;99.90
2565;DHT22;1292;48.020;7.822;2023-06-22T09:33:23;27.90;99.90
2565;DHT22;1292;48.020;7.822;2023-06-22T09:35:50;28.00;99.90
2565;DHT22;1292;48.020;7.822;2023-06-22T09:38:17;28.20;99.90
2565;DHT22;1292;48.020;7.822;2023-06-22T09:40:44;28.30;99.90
2565;DHT22;1292;48.020;7.822;2023-06-22T09:43:11;28.40;99.90
2565;DHT22;1292;48.020;7.822;2023-06-22T09:45:38;28.50;99.90
2565;DHT22;1292;48.020;7.822;2023-06-22T09:48:06;28.70;99.90
2565;DHT22;1292;48.020;7.822;2023-06-22T09:50:35;28.80;99.90
2565;DHT22;1292;48.020;7.822;2023-06-22T09:53:03;28.90;99.90
2565;DHT22;1292;48.020;7.822;2023-06-22T09:55:30;29.00;99.90
2565;DHT22;1292;48.020;7.822;2023-06-22T09:57:57;29.00;99.90
2565;DHT22;1292;48.020;7.822;2023-06-22T10:00:24;29.10;99.90
2565;DHT22;1292;48.020;7.822;2023-06-22T10:02:52;29.10;99.90
2565;DHT22;1292;48.020;7.822;2023-06-22T10:05:20;29.10;99.90
2565;DHT22;1292;48.020;7.822;2023-06-22T10:07:47;29.20;99.90
2565;DHT22;1292;48.020;7.822;2023-06-22T10:10:14;29.10;99.90
2565;DHT22;1292;48.020;7.822;2023-06-22T10:12:42;29.10;99.90
2565;DHT22;1292;48.020;7.822;2023-06-22T10:15:10;29.10;99.90
2565;DHT22;1292;48.020;7.822;2023-06-22T10:17:37;29.20;99.90
2565;DHT22;1292;48.020;7.822;2023-06-22T10:20:05;29.20;99.90
2565;DHT22;1292;48.020;7.822;2023-06-22T10:22:38;29.30;99.90
2565;DHT22;1292;48.020;7.822;2023-06-22T10:25:06;29.10;99.90
2565;DHT22;1292;48.020;7.822;2023-06-22T10:27:33;29.00;99.90
2565;DHT22;1292;48.020;7.822;2023-06-22T10:30:00;29.10;99.90
2565;DHT22;1292;48.020;7.822;2023-06-22T10:32:27;29.30;99.90
2565;DHT22;1292;48.020;7.822;2023-06-22T10:34:54;29.40;99.90
2565;DHT22;1292;48.020;7.822;2023-06-22T10:37:21;29.30;99.90
2565;DHT22;1292;48.020;7.822;2023-06-22T10:39:49;29.30;99.90
2565;DHT22;1292;48.020;7.822;2023-06-22T10:42:16;29.20;99.90
2565;DHT22;1292;48.020;7.822;2023-06-22T10:44:43;29.00;99.90
2565;DHT22;1292;48.020;7.822;2023-06-22T10:47:10;28.90;99.90
2565;DHT22;1292;48.020;7.822;2023-06-22T10:49:37;28.80;99.90
2565;DHT22;1292;48.020;7.822;2023-06-22T10:52:05;28.70;99.90
2565;DHT22;1292;48.020;7.822;2023-06-22T10:54:32;28.70;99.90
2565;DHT22;1292;48.020;7.822;2023-06-22T10:57:01;28.70;99.90
2565;DHT22;1292;48.020;7.822;2023-06-22T10:59:28;28.80;99.90
2565;DHT22;1292;48.020;7.822;2023-06-22T11:01:55;29.00;99.90
2565;DHT22;1292;48.020;7.822;2023-06-22T11:04:23;29.00;99.90
2565;DHT22;1292;48.020;7.822;2023-06-22T11:06:50;29.10;99.90
2565;DHT22;1292;48.020;7.822;2023-06-22T11:09:17;29.30;99.90
2565;DHT22;1292;48.020;7.822;2023-06-22T11:11:46;29.50;99.90
2565;DHT22;1292;48.020;7.822;2023-06-22T11:14:14;29.60;99.90
2565;DHT22;1292;48.020;7.822;2023-06-22T11:16:41;29.80;99.90
2565;DHT22;1292;48.020;7.822;2023-06-22T11:19:08;29.90;99.90
2565;DHT22;1292;48.020;7.822;2023-06-22T11:21:35;30.10;99.90
2565;DHT22;1292;48.020;7.822;2023-06-22T11:24:02;30.10;99.90
2565;DHT22;1292;48.020;7.822;2023-06-22T11:26:29;30.30;99.90
2565;DHT22;1292;48.020;7.822;2023-06-22T11:28:57;30.20;99.90
2565;DHT22;1292;48.020;7.822;2023-06-22T11:31:25;30.30;99.90
2565;DHT22;1292;48.020;7.822;2023-06-22T11:33:52;30.20;99.90
2565;DHT22;1292;48.020;7.822;2023-06-22T11:36:19;30.30;99.90
2565;DHT22;1292;48.020;7.822;2023-06-22T11:38:46;30.20;99.90
2565;DHT22;1292;48.020;7.822;2023-06-22T11:41:13;30.10;99.90
2565;DHT22;1292;48.020;7.822;2023-06-22T11:43:39;30.20;99.90
2565;DHT22;1292;48.020;7.822;2023-06-22T11:46:06;30.00;99.90
2565;DHT22;1292;48.020;7.822;2023-06-22T11:48:35;30.00;99.90
2565;DHT22;1292;48.020;7.822;2023-06-22T11:51:02;30.00;99.90
2565;DHT22;1292;48.020;7.822;2023-06-22T11:53:29;30.10;99.90
2565;DHT22;1292;48.020;7.822;2023-06-22T11:55:56;30.20;99.90
2565;DHT22;1292;48.020;7.822;2023-06-22T11:58:23;30.20;99.90
2565;DHT22;1292;48.020;7.822;2023-06-22T12:00:50;30.20;99.90
2565;DHT22;1292;48.020;7.822;2023-06-22T12:03:17;30.20;99.90
2565;DHT22;1292;48.020;7.822;2023-06-22T12:05:46;30.30;99.90
2565;DHT22;1292;48.020;7.822;2023-06-22T12:08:13;30.30;99.90
2565;DHT22;1292;48.020;7.822;2023-06-22T12:10:40;30.30;99.90
2565;DHT22;1292;48.020;7.822;2023-06-22T12:13:06;30.30;99.90
2565;DHT22;1292;48.020;7.822;2023-06-22T12:15:33;30.30;99.90
2565;DHT22;1292;48.020;7.822;2023-06-22T12:18:00;30.20;99.90
2565;DHT22;1292;48.020;7.822;2023-06-22T12:20:28;30.20;99.90
2565;DHT22;1292;48.020;7.822;2023-06-22T12:22:57;30.10;99.90
2565;DHT22;1292;48.020;7.822;2023-06-22T12:25:23;30.00;99.90
2565;DHT22;1292;48.020;7.822;2023-06-22T12:27:50;29.80;99.90
2565;DHT22;1292;48.020;7.822;2023-06-22T12:30:17;29.60;99.90
2565;DHT22;1292;48.020;7.822;2023-06-22T12:32:44;29.20;99.90
2565;DHT22;1292;48.020;7.822;2023-06-22T12:35:11;29.10;99.90
2565;DHT22;1292;48.020;7.822;2023-06-22T12:37:40;29.10;99.90
2565;DHT22;1292;48.020;7.822;2023-06-22T12:40:09;29.10;99.90
2565;DHT22;1292;48.020;7.822;2023-06-22T12:42:36;28.90;99.90
2565;DHT22;1292;48.020;7.822;2023-06-22T12:45:04;28.90;99.90
2565;DHT22;1292;48.020;7.822;2023-06-22T12:47:31;28.90;99.90
2565;DHT22;1292;48.020;7.822;2023-06-22T12:49:58;28.80;99.90
2565;DHT22;1292;48.020;7.822;2023-06-22T12:52:24;28.70;99.90
2565;DHT22;1292;48.020;7.822;2023-06-22T12:54:51;28.80;99.90
2565;DHT22;1292;48.020;7.822;2023-06-22T12:57:21;28.90;99.90
2565;DHT22;1292;48.020;7.822;2023-06-22T12:59:49;28.90;99.90
2565;DHT22;1292;48.020;7.822;2023-06-22T13:02:16;28.90;99.90
2565;DHT22;1292;48.020;7.822;2023-06-22T13:04:42;28.90;99.90
2565;DHT22;1292;48.020;7.822;2023-06-22T13:07:09;28.90;99.90
2565;DHT22;1292;48.020;7.822;2023-06-22T13:09:36;28.90;99.90
2565;DHT22;1292;48.020;7.822;2023-06-22T13:12:04;28.90;99.90
2565;DHT22;1292;48.020;7.822;2023-06-22T13:14:32;28.90;99.90
2565;DHT22;1292;48.020;7.822;2023-06-22T13:16:59;28.80;99.90
2565;DHT22;1292;48.020;7.822;2023-06-22T13:19:26;28.80;99.90
2565;DHT22;1292;48.020;7.822;2023-06-22T13:21:57;28.70;99.90
2565;DHT22;1292;48.020;7.822;2023-06-22T13:24:24;28.80;99.90
2565;DHT22;1292;48.020;7.822;2023-06-22T13:26:51;28.70;99.90
2565;DHT22;1292;48.020;7.822;2023-06-22T13:29:17;28.60;99.90
2565;DHT22;1292;48.020;7.822;2023-06-22T13:31:46;28.60;99.90
2565;DHT22;1292;48.020;7.822;2023-06-22T13:34:12;28.60;99.90
2565;DHT22;1292;48.020;7.822;2023-06-22T13:36:39;28.60;99.90
2565;DHT22;1292;48.020;7.822;2023-06-22T13:39:06;28.60;99.90
2565;DHT22;1292;48.020;7.822;2023-06-22T13:41:33;28.60;99.90
2565;DHT22;1292;48.020;7.822;2023-06-22T13:44:00;28.60;99.90
2565;DHT22;1292;48.020;7.822;2023-06-22T13:46:27;28.60;99.90
2565;DHT22;1292;48.020;7.822;2023-06-22T13:48:55;28.50;99.90
2565;DHT22;1292;48.020;7.822;2023-06-22T13:51:22;28.50;99.90
2565;DHT22;1292;48.020;7.822;2023-06-22T13:53:49;28.50;99.90
2565;DHT22;1292;48.020;7.822;2023-06-22T13:56:16;28.60;99.90
2565;DHT22;1292;48.020;7.822;2023-06-22T13:58:43;28.50;99.90
2565;DHT22;1292;48.020;7.822;2023-06-22T14:01:10;28.40;99.90
2565;DHT22;1292;48.020;7.822;2023-06-22T14:03:36;28.40;99.90
2565;DHT22;1292;48.020;7.822;2023-06-22T14:06:05;28.20;99.90
2565;DHT22;1292;48.020;7.822;2023-06-22T14:08:32;28.10;99.90
2565;DHT22;1292;48.020;7.822;2023-06-22T14:10:58;28.10;99.90
2565;DHT22;1292;48.020;7.822;2023-06-22T14:13:25;28.00;99.90
2565;DHT22;1292;48.020;7.822;2023-06-22T14:15:52;28.00;99.90
2565;DHT22;1292;48.020;7.822;2023-06-22T14:18:19;28.00;99.90
2565;DHT22;1292;48.020;7.822;2023-06-22T14:20:47;27.90;99.90
2565;DHT22;1292;48.020;7.822;2023-06-22T14:23:16;27.90;99.90
2565;DHT22;1292;48.020;7.822;2023-06-22T14:25:42;27.80;99.90
2565;DHT22;1292;48.020;7.822;2023-06-22T14:28:09;27.80;99.90
2565;DHT22;1292;48.020;7.822;2023-06-22T14:30:36;27.80;99.90
2565;DHT22;1292;48.020;7.822;2023-06-22T14:33:03;27.90;99.90
2565;DHT22;1292;48.020;7.822;2023-06-22T14:35:30;27.90;99.90
2565;DHT22;1292;48.020;7.822;2023-06-22T14:37:57;27.90;99.90
2565;DHT22;1292;48.020;7.822;2023-06-22T14:40:25;28.00;99.90
2565;DHT22;1292;48.020;7.822;2023-06-22T14:42:52;28.00;99.90
2565;DHT22;1292;48.020;7.822;2023-06-22T14:45:18;28.00;99.90
2565;DHT22;1292;48.020;7.822;2023-06-22T14:47:45;28.20;99.90
2565;DHT22;1292;48.020;7.822;2023-06-22T14:50:12;28.40;99.90
2565;DHT22;1292;48.020;7.822;2023-06-22T14:52:39;28.70;99.90
2565;DHT22;1292;48.020;7.822;2023-06-22T14:55:06;28.90;99.90
2565;DHT22;1292;48.020;7.822;2023-06-22T14:57:35;29.00;99.90
2565;DHT22;1292;48.020;7.822;2023-06-22T15:00:02;29.00;99.90
2565;DHT22;1292;48.020;7.822;2023-06-22T15:02:29;29.00;99.90
2565;DHT22;1292;48.020;7.822;2023-06-22T15:04:56;29.00;99.90
2565;DHT22;1292;48.020;7.822;2023-06-22T15:07:23;29.00;99.90
2565;DHT22;1292;48.020;7.822;2023-06-22T15:09:49;28.90;99.90
2565;DHT22;1292;48.020;7.822;2023-06-22T15:12:16;28.90;99.90
2565;DHT22;1292;48.020;7.822;2023-06-22T15:14:44;28.90;99.90
2565;DHT22;1292;48.020;7.822;2023-06-22T15:17:11;28.90;99.90
2565;DHT22;1292;48.020;7.822;2023-06-22T15:19:39;29.00;99.90
2565;DHT22;1292;48.020;7.822;2023-06-22T15:22:07;29.20;99.90
2565;DHT22;1292;48.020;7.822;2023-06-22T15:24:34;29.40;99.90
2565;DHT22;1292;48.020;7.822;2023-06-22T15:27:01;29.60;99.90
2565;DHT22;1292;48.020;7.822;2023-06-22T15:29:28;29.60;99.90
2565;DHT22;1292;48.020;7.822;2023-06-22T15:32:00;29.70;99.90
2565;DHT22;1292;48.020;7.822;2023-06-22T15:34:28;29.70;99.90
2565;DHT22;1292;48.020;7.822;2023-06-22T15:36:54;29.80;99.90
2565;DHT22;1292;48.020;7.822;2023-06-22T15:39:21;29.80;99.90
2565;DHT22;1292;48.020;7.822;2023-06-22T15:41:50;29.80;99.90
2565;DHT22;1292;48.020;7.822;2023-06-22T15:44:19;29.80;99.90
2565;DHT22;1292;48.020;7.822;2023-06-22T15:46:46;29.80;99.90
2565;DHT22;1292;48.020;7.822;2023-06-22T15:49:15;29.70;99.90
2565;DHT22;1292;48.020;7.822;2023-06-22T15:51:43;29.70;99.90
2565;DHT22;1292;48.020;7.822;2023-06-22T15:54:10;29.70;99.90
2565;DHT22;1292;48.020;7.822;2023-06-22T15:56:37;29.70;99.90
2565;DHT22;1292;48.020;7.822;2023-06-22T15:59:04;29.70;99.90
2565;DHT22;1292;48.020;7.822;2023-06-22T16:01:31;29.70;99.90
2565;DHT22;1292;48.020;7.822;2023-06-22T16:03:58;29.70;99.90
2565;DHT22;1292;48.020;7.822;2023-06-22T16:06:26;29.70;99.90
2565;DHT22;1292;48.020;7.822;2023-06-22T16:08:52;29.70;99.90
2565;DHT22;1292;48.020;7.822;2023-06-22T16:11:19;29.70;99.90
2565;DHT22;1292;48.020;7.822;2023-06-22T16:13:46;29.60;99.90
2565;DHT22;1292;48.020;7.822;2023-06-22T16:16:13;29.50;99.90
2565;DHT22;1292;48.020;7.822;2023-06-22T16:18:41;29.40;99.90
2565;DHT22;1292;48.020;7.822;2023-06-22T16:21:08;29.30;99.90
2565;DHT22;1292;48.020;7.822;2023-06-22T16:23:36;29.20;99.90
2565;DHT22;1292;48.020;7.822;2023-06-22T16:26:03;29.10;99.90
2565;DHT22;1292;48.020;7.822;2023-06-22T16:28:30;29.00;99.90
2565;DHT22;1292;48.020;7.822;2023-06-22T16:30:57;28.90;99.90
2565;DHT22;1292;48.020;7.822;2023-06-22T16:33:24;28.90;99.90
2565;DHT22;1292;48.020;7.822;2023-06-22T16:35:51;28.80;99.90
2565;DHT22;1292;48.020;7.822;2023-06-22T16:38:18;28.80;99.90
2565;DHT22;1292;48.020;7.822;2023-06-22T16:40:46;28.80;99.90
2565;DHT22;1292;48.020;7.822;2023-06-22T16:43:13;28.80;99.90
2565;DHT22;1292;48.020;7.822;2023-06-22T16:45:40;28.80;99.90
2565;DHT22;1292;48.020;7.822;2023-06-22T16:48:07;28.70;99.90
2565;DHT22;1292;48.020;7.822;2023-06-22T16:50:34;28.70;99.90
2565;DHT22;1292;48.020;7.822;2023-06-22T16:53:01;28.70;99.90
2565;DHT22;1292;48.020;7.822;2023-06-22T16:55:29;28.70;99.90
2565;DHT22;1292;48.020;7.822;2023-06-22T16:58:00;28.60;99.90
2565;DHT22;1292;48.020;7.822;2023-06-22T17:00:28;28.60;99.90
2565;DHT22;1292;48.020;7.822;2023-06-22T17:02:58;28.60;99.90
2565;DHT22;1292;48.020;7.822;2023-06-22T17:05:26;28.50;99.90
2565;DHT22;1292;48.020;7.822;2023-06-22T17:07:57;28.50;99.90
2565;DHT22;1292;48.020;7.822;2023-06-22T17:10:26;28.40;99.90
2565;DHT22;1292;48.020;7.822;2023-06-22T17:12:53;28.40;99.90
2565;DHT22;1292;48.020;7.822;2023-06-22T17:15:24;28.40;99.90
2565;DHT22;1292;48.020;7.822;2023-06-22T17:17:51;28.40;99.90
2565;DHT22;1292;48.020;7.822;2023-06-22T17:20:19;28.30;99.90
2565;DHT22;1292;48.020;7.822;2023-06-22T17:22:46;28.30;99.90
2565;DHT22;1292;48.020;7.822;2023-06-22T17:25:14;28.20;99.90
2565;DHT22;1292;48.020;7.822;2023-06-22T17:27:41;28.30;99.90
2565;DHT22;1292;48.020;7.822;2023-06-22T17:30:09;28.10;99.90
2565;DHT22;1292;48.020;7.822;2023-06-22T17:32:39;28.00;99.90
2565;DHT22;1292;48.020;7.822;2023-06-22T17:35:10;27.90;99.90
2565;DHT22;1292;48.020;7.822;2023-06-22T17:37:47;27.80;99.90
2565;DHT22;1292;48.020;7.822;2023-06-22T17:40:15;27.70;99.90
2565;DHT22;1292;48.020;7.822;2023-06-22T17:42:43;27.70;99.90
2565;DHT22;1292;48.020;7.822;2023-06-22T17:45:15;27.70;99.90
2565;DHT22;1292;48.020;7.822;2023-06-22T17:47:46;27.70;99.90
2565;DHT22;1292;48.020;7.822;2023-06-22T17:50:13;27.60;99.90
2565;DHT22;1292;48.020;7.822;2023-06-22T17:52:40;27.60;99.90
2565;DHT22;1292;48.020;7.822;2023-06-22T17:55:07;27.60;99.90
2565;DHT22;1292;48.020;7.822;2023-06-22T17:57:38;27.40;99.90
2565;DHT22;1292;48.020;7.822;2023-06-22T18:00:06;27.00;99.90
2565;DHT22;1292;48.020;7.822;2023-06-22T18:02:37;26.50;99.90
2565;DHT22;1292;48.020;7.822;2023-06-22T18:05:06;26.00;99.90
2565;DHT22;1292;48.020;7.822;2023-06-22T18:07:34;25.20;99.90
2565;DHT22;1292;48.020;7.822;2023-06-22T18:10:02;24.60;99.90
2565;DHT22;1292;48.020;7.822;2023-06-22T18:12:29;24.10;99.90
2565;DHT22;1292;48.020;7.822;2023-06-22T18:14:57;23.70;99.90
2565;DHT22;1292;48.020;7.822;2023-06-22T18:17:25;23.30;99.90
2565;DHT22;1292;48.020;7.822;2023-06-22T18:19:53;23.00;99.90
2565;DHT22;1292;48.020;7.822;2023-06-22T18:22:22;22.80;99.90
2565;DHT22;1292;48.020;7.822;2023-06-22T18:24:49;22.60;99.90
2565;DHT22;1292;48.020;7.822;2023-06-22T18:27:16;22.40;99.90
2565;DHT22;1292;48.020;7.822;2023-06-22T18:29:44;22.30;99.90
2565;DHT22;1292;48.020;7.822;2023-06-22T18:32:11;22.10;99.90
2565;DHT22;1292;48.020;7.822;2023-06-22T18:34:39;21.90;99.90
2565;DHT22;1292;48.020;7.822;2023-06-22T18:37:09;21.80;99.90
2565;DHT22;1292;48.020;7.822;2023-06-22T18:39:39;21.70;99.90
2565;DHT22;1292;48.020;7.822;2023-06-22T18:42:09;21.60;99.90
2565;DHT22;1292;48.020;7.822;2023-06-22T18:44:40;21.60;99.90
2565;DHT22;1292;48.020;7.822;2023-06-22T18:47:08;21.60;99.90
2565;DHT22;1292;48.020;7.822;2023-06-22T18:49:45;21.50;99.90
2565;DHT22;1292;48.020;7.822;2023-06-22T18:52:15;21.50;99.90
2565;DHT22;1292;48.020;7.822;2023-06-22T18:54:44;21.50;99.90
2565;DHT22;1292;48.020;7.822;2023-06-22T18:57:15;21.40;99.90
2565;DHT22;1292;48.020;7.822;2023-06-22T18:59:47;21.30;99.90
2565;DHT22;1292;48.020;7.822;2023-06-22T19:02:15;21.30;99.90
2565;DHT22;1292;48.020;7.822;2023-06-22T19:04:44;21.30;99.90
2565;DHT22;1292;48.020;7.822;2023-06-22T19:07:11;21.20;99.90
2565;DHT22;1292;48.020;7.822;2023-06-22T19:09:38;21.20;99.90
2565;DHT22;1292;48.020;7.822;2023-06-22T19:12:21;21.20;99.90
2565;DHT22;1292;48.020;7.822;2023-06-22T19:15:15;21.10;99.90
2565;DHT22;1292;48.020;7.822;2023-06-22T19:17:42;21.20;99.90
2565;DHT22;1292;48.020;7.822;2023-06-22T19:20:11;21.00;99.90
2565;DHT22;1292;48.020;7.822;2023-06-22T19:22:46;21.00;99.90
2565;DHT22;1292;48.020;7.822;2023-06-22T19:25:21;21.00;99.90
2565;DHT22;1292;48.020;7.822;2023-06-22T19:27:50;21.00;99.90
2565;DHT22;1292;48.020;7.822;2023-06-22T19:30:20;21.00;99.90
2565;DHT22;1292;48.020;7.822;2023-06-22T19:32:48;21.00;99.90
2565;DHT22;1292;48.020;7.822;2023-06-22T19:35:16;21.00;99.90
2565;DHT22;1292;48.020;7.822;2023-06-22T19:37:44;21.00;99.90
2565;DHT22;1292;48.020;7.822;2023-06-22T19:40:12;21.00;99.90
2565;DHT22;1292;48.020;7.822;2023-06-22T19:42:40;20.90;99.90
2565;DHT22;1292;48.020;7.822;2023-06-22T19:45:13;21.00;99.90
2565;DHT22;1292;48.020;7.822;2023-06-22T19:47:40;21.00;99.90
2565;DHT22;1292;48.020;7.822;2023-06-22T19:50:09;21.10;99.90
2565;DHT22;1292;48.020;7.822;2023-06-22T19:52:36;21.10;99.90
2565;DHT22;1292;48.020;7.822;2023-06-22T19:55:04;21.10;99.90
2565;DHT22;1292;48.020;7.822;2023-06-22T19:57:35;21.10;99.90
2565;DHT22;1292;48.020;7.822;2023-06-22T20:00:03;21.10;99.90
2565;DHT22;1292;48.020;7.822;2023-06-22T20:02:39;21.00;99.90
2565;DHT22;1292;48.020;7.822;2023-06-22T20:05:07;21.00;99.90
2565;DHT22;1292;48.020;7.822;2023-06-22T20:07:35;20.80;99.90
2565;DHT22;1292;48.020;7.822;2023-06-22T20:10:08;20.80;99.90
2565;DHT22;1292;48.020;7.822;2023-06-22T20:12:35;20.80;99.90
2565;DHT22;1292;48.020;7.822;2023-06-22T20:15:29;20.90;99.90
2565;DHT22;1292;48.020;7.822;2023-06-22T20:18:00;20.90;99.90
2565;DHT22;1292;48.020;7.822;2023-06-22T20:20:29;20.90;99.90
2565;DHT22;1292;48.020;7.822;2023-06-22T20:22:59;20.90;99.90
2565;DHT22;1292;48.020;7.822;2023-06-22T20:25:29;20.90;99.90
2565;DHT22;1292;48.020;7.822;2023-06-22T20:28:02;20.90;99.90
2565;DHT22;1292;48.020;7.822;2023-06-22T20:30:30;20.80;99.90
2565;DHT22;1292;48.020;7.822;2023-06-22T20:32:59;20.80;99.90
2565;DHT22;1292;48.020;7.822;2023-06-22T20:35:28;20.80;99.90
2565;DHT22;1292;48.020;7.822;2023-06-22T20:37:54;20.70;99.90
2565;DHT22;1292;48.020;7.822;2023-06-22T20:40:21;20.80;99.90
2565;DHT22;1292;48.020;7.822;2023-06-22T20:42:53;20.70;99.90
2565;DHT22;1292;48.020;7.822;2023-06-22T20:45:20;20.70;99.90
2565;DHT22;1292;48.020;7.822;2023-06-22T20:47:47;20.70;99.90
2565;DHT22;1292;48.020;7.822;2023-06-22T20:50:15;20.60;99.90
2565;DHT22;1292;48.020;7.822;2023-06-22T20:52:42;20.60;99.90
2565;DHT22;1292;48.020;7.822;2023-06-22T20:55:12;20.70;99.90
2565;DHT22;1292;48.020;7.822;2023-06-22T20:57:39;20.70;99.90
2565;DHT22;1292;48.020;7.822;2023-06-22T21:00:08;20.60;99.90
2565;DHT22;1292;48.020;7.822;2023-06-22T21:02:35;20.60;99.90
2565;DHT22;1292;48.020;7.822;2023-06-22T21:05:02;20.60;99.90
2565;DHT22;1292;48.020;7.822;2023-06-22T21:07:30;20.50;99.90
2565;DHT22;1292;48.020;7.822;2023-06-22T21:09:57;20.60;99.90
2565;DHT22;1292;48.020;7.822;2023-06-22T21:12:24;20.60;99.90
2565;DHT22;1292;48.020;7.822;2023-06-22T21:14:50;20.60;99.90
2565;DHT22;1292;48.020;7.822;2023-06-22T21:17:18;20.50;99.90
2565;DHT22;1292;48.020;7.822;2023-06-22T21:19:45;20.50;99.90
2565;DHT22;1292;48.020;7.822;2023-06-22T21:22:11;20.50;99.90
2565;DHT22;1292;48.020;7.822;2023-06-22T21:24:40;20.50;99.90
2565;DHT22;1292;48.020;7.822;2023-06-22T21:27:07;20.50;99.90
2565;DHT22;1292;48.020;7.822;2023-06-22T21:29:33;20.50;99.90
2565;DHT22;1292;48.020;7.822;2023-06-22T21:32:00;20.50;99.90
2565;DHT22;1292;48.020;7.822;2023-06-22T21:34:27;20.60;99.90
2565;DHT22;1292;48.020;7.822;2023-06-22T21:36:54;20.60;99.90
2565;DHT22;1292;48.020;7.822;2023-06-22T21:39:21;20.50;99.90
